createdAt,value
2023-07-27T00:00:19.001Z,98174.41
2023-07-27T00:02:45.791Z,98177.97
2023-07-27T00:05:14.364Z,98177.34
2023-07-27T00:07:41.161Z,98183.50
2023-07-27T00:10:08.030Z,98177.56
2023-07-27T00:12:34.836Z,98169.72
2023-07-27T00:15:01.598Z,98169.41
2023-07-27T00:17:28.462Z,98168.66
2023-07-27T00:19:55.726Z,98170.50
2023-07-27T00:22:22.489Z,98167.16
2023-07-27T00:24:49.450Z,98164.59
2023-07-27T00:27:16.119Z,98155.28
2023-07-27T00:29:42.778Z,98159.41
2023-07-27T00:32:09.770Z,98158.84
2023-07-27T00:34:36.370Z,98163.25
2023-07-27T00:37:03.071Z,98161.31
2023-07-27T00:39:29.720Z,98154.63
2023-07-27T00:41:56.445Z,98157.00
2023-07-27T00:44:23.056Z,98155.34
2023-07-27T00:46:51.750Z,98151.13
2023-07-27T00:49:18.594Z,98154.66
2023-07-27T00:51:46.042Z,98151.16
2023-07-27T00:54:13.355Z,98149.00
2023-07-27T00:56:40.622Z,98145.28
2023-07-27T00:59:08.083Z,98134.66
2023-07-27T01:01:34.914Z,98142.34
2023-07-27T01:04:01.972Z,98137.94
2023-07-27T01:06:29.280Z,98140.50
2023-07-27T01:08:56.578Z,98129.88
2023-07-27T01:11:49.140Z,98120.03
2023-07-27T01:14:36.346Z,98126.81
2023-07-27T01:17:08.361Z,98121.53
2023-07-27T01:20:12.097Z,98121.34
2023-07-27T01:22:47.360Z,98116.81
2023-07-27T01:25:58.667Z,98117.19
2023-07-27T01:29:19.579Z,98115.03
2023-07-27T01:31:48.114Z,98109.75
2023-07-27T01:34:32.716Z,98109.13
2023-07-27T01:37:03.190Z,98103.84
2023-07-27T01:39:33.002Z,98110.78
2023-07-27T01:42:01.677Z,98103.56
2023-07-27T01:44:30.739Z,98106.56
2023-07-27T01:47:01.040Z,98101.94
2023-07-27T01:49:29.998Z,98091.38
2023-07-27T01:51:58.240Z,98092.31
2023-07-27T01:54:26.750Z,98087.34
2023-07-27T01:56:56.038Z,98090.22
2023-07-27T01:59:23.701Z,98077.94
2023-07-27T02:01:51.386Z,98082.19
2023-07-27T02:04:18.117Z,98077.69
2023-07-27T02:06:50.487Z,98074.28
2023-07-27T02:09:17.490Z,98058.16
2023-07-27T02:11:47.637Z,98063.25
2023-07-27T02:14:32.665Z,98064.38
2023-07-27T02:20:40.577Z,98055.41
2023-07-27T02:23:08.685Z,98058.72
2023-07-27T02:25:35.495Z,98056.00
2023-07-27T02:28:02.072Z,98042.72
2023-07-27T02:30:28.719Z,98035.25
2023-07-27T02:32:55.434Z,98037.88
2023-07-27T02:35:22.347Z,98033.00
2023-07-27T02:37:48.984Z,98036.63
2023-07-27T02:40:15.713Z,98030.47
2023-07-27T02:42:42.318Z,98032.78
2023-07-27T02:45:09.512Z,98037.97
2023-07-27T02:47:36.133Z,98036.25
2023-07-27T02:50:02.756Z,98037.38
2023-07-27T02:52:29.321Z,98032.53
2023-07-27T02:54:55.958Z,98030.25
2023-07-27T02:57:22.640Z,98023.81
2023-07-27T02:59:49.266Z,98027.03
2023-07-27T03:02:16.543Z,98032.09
2023-07-27T03:04:43.216Z,98033.03
2023-07-27T03:07:09.809Z,98030.31
2023-07-27T03:09:36.423Z,98036.81
2023-07-27T03:12:03.161Z,98031.91
2023-07-27T03:14:29.698Z,98033.19
2023-07-27T03:16:56.204Z,98031.59
2023-07-27T03:19:22.709Z,98032.53
2023-07-27T03:21:49.731Z,98026.97
2023-07-27T03:24:17.817Z,98021.81
2023-07-27T03:26:45.082Z,98019.16
2023-07-27T03:29:11.917Z,98023.25
2023-07-27T03:31:39.803Z,98017.97
2023-07-27T03:34:06.566Z,98019.47
2023-07-27T03:36:33.733Z,98014.09
2023-07-27T03:39:01.275Z,98006.34
2023-07-27T03:41:27.909Z,98013.69
2023-07-27T03:43:54.657Z,98001.13
2023-07-27T03:46:21.523Z,98004.19
2023-07-27T03:48:49.560Z,98004.81
2023-07-27T03:51:16.326Z,98001.13
2023-07-27T03:53:43.097Z,97999.53
2023-07-27T03:56:10.100Z,97997.38
2023-07-27T03:58:37.036Z,98000.00
2023-07-27T04:01:03.740Z,97990.84
2023-07-27T04:03:30.510Z,97994.41
2023-07-27T04:05:57.269Z,98000.44
2023-07-27T04:08:24.010Z,97998.72
2023-07-27T04:10:50.815Z,98001.38
2023-07-27T04:13:17.405Z,98005.22
2023-07-27T04:15:44.114Z,98008.50
2023-07-27T04:18:11.035Z,98002.00
2023-07-27T04:20:37.829Z,98001.84
2023-07-27T04:23:04.625Z,97997.69
2023-07-27T04:25:31.388Z,97996.47
2023-07-27T04:27:58.078Z,97991.81
2023-07-27T04:30:24.760Z,97992.44
2023-07-27T04:32:51.546Z,97981.00
2023-07-27T04:35:18.203Z,97987.78
2023-07-27T04:37:44.970Z,97993.84
2023-07-27T04:40:12.548Z,97987.56
2023-07-27T04:42:39.106Z,97977.09
2023-07-27T04:45:06.301Z,97986.47
2023-07-27T04:47:32.858Z,97984.75
2023-07-27T04:49:59.468Z,97982.78
2023-07-27T04:52:26.283Z,97979.38
2023-07-27T04:54:52.977Z,97981.09
2023-07-27T04:57:19.629Z,97973.94
2023-07-27T04:59:46.284Z,97975.97
2023-07-27T05:02:12.878Z,97975.03
2023-07-27T05:04:39.555Z,97971.06
2023-07-27T05:07:07.569Z,97966.31
2023-07-27T05:09:34.533Z,97969.41
2023-07-27T05:12:01.194Z,97964.13
2023-07-27T05:14:28.009Z,97958.81
2023-07-27T05:16:54.608Z,97953.84
2023-07-27T05:19:21.321Z,97956.72
2023-07-27T05:21:48.037Z,97949.22
2023-07-27T05:24:14.805Z,97943.09
2023-07-27T05:26:41.666Z,97943.63
2023-07-27T05:29:08.407Z,97940.53
2023-07-27T05:31:35.334Z,97935.72
2023-07-27T05:34:02.134Z,97929.56
2023-07-27T05:36:28.800Z,97934.75
2023-07-27T05:38:56.038Z,97932.56
2023-07-27T05:41:22.792Z,97938.03
2023-07-27T05:43:49.549Z,97927.56
2023-07-27T05:46:16.701Z,97928.31
2023-07-27T05:48:43.453Z,97939.38
2023-07-27T05:51:10.848Z,97937.66
2023-07-27T05:53:37.674Z,97930.84
2023-07-27T05:56:04.810Z,97934.94
2023-07-27T05:58:31.413Z,97931.34
2023-07-27T06:01:02.803Z,97929.97
2023-07-27T06:03:30.630Z,97910.31
2023-07-27T06:05:57.670Z,97917.84
2023-07-27T06:08:24.447Z,97916.97
2023-07-27T06:11:00.778Z,97912.09
2023-07-27T06:13:27.599Z,97921.16
2023-07-27T06:15:54.340Z,97918.69
2023-07-27T06:18:21.073Z,97917.16
2023-07-27T06:20:47.729Z,97917.75
2023-07-27T06:23:14.430Z,97923.66
2023-07-27T06:25:45.294Z,97918.78
2023-07-27T06:28:13.163Z,97928.00
2023-07-27T06:30:40.324Z,97919.53
2023-07-27T06:33:07.351Z,97931.00
2023-07-27T06:35:34.610Z,97923.38
2023-07-27T06:38:01.441Z,97921.75
2023-07-27T06:40:28.417Z,97919.34
2023-07-27T06:42:55.219Z,97915.25
2023-07-27T06:45:21.933Z,97930.84
2023-07-27T06:47:49.550Z,97916.97
2023-07-27T06:50:16.392Z,97908.72
2023-07-27T06:52:43.017Z,97916.25
2023-07-27T06:55:10.275Z,97913.13
2023-07-27T06:57:36.969Z,97915.44
2023-07-27T07:00:04.430Z,97906.28
2023-07-27T07:02:31.133Z,97902.81
2023-07-27T07:04:58.100Z,97897.06
2023-07-27T07:07:25.035Z,97904.47
2023-07-27T07:09:51.778Z,97906.72
2023-07-27T07:12:18.530Z,97889.88
2023-07-27T07:14:45.283Z,97901.63
2023-07-27T07:17:15.230Z,97911.34
2023-07-27T07:19:43.316Z,97913.13
2023-07-27T07:22:10.101Z,97919.19
2023-07-27T07:24:36.743Z,97913.09
2023-07-27T07:27:03.952Z,97909.09
2023-07-27T07:29:30.687Z,97919.34
2023-07-27T07:31:57.440Z,97916.00
2023-07-27T07:34:24.198Z,97926.44
2023-07-27T07:36:50.943Z,97928.34
2023-07-27T07:39:18.362Z,97919.13
2023-07-27T07:41:45.016Z,97918.66
2023-07-27T07:44:11.658Z,97918.47
2023-07-27T07:46:38.459Z,97916.78
2023-07-27T07:49:05.119Z,97918.16
2023-07-27T07:51:31.885Z,97920.19
2023-07-27T07:54:08.667Z,97920.16
2023-07-27T07:56:36.471Z,97909.84
2023-07-27T07:59:03.926Z,97913.75
2023-07-27T08:01:30.595Z,97914.53
2023-07-27T08:03:57.332Z,97910.53
2023-07-27T08:06:24.080Z,97911.25
2023-07-27T08:08:50.800Z,97910.69
2023-07-27T08:11:17.477Z,97897.22
2023-07-27T08:13:44.360Z,97893.38
2023-07-27T08:16:10.923Z,97886.91
2023-07-27T08:18:37.585Z,97873.78
2023-07-27T08:21:06.391Z,97873.78
2023-07-27T08:23:33.970Z,97870.91
2023-07-27T08:26:01.776Z,97871.38
2023-07-27T08:28:34.082Z,97864.25
2023-07-27T08:31:03.451Z,97861.38
2023-07-27T08:33:30.987Z,97858.75
2023-07-27T08:36:00.720Z,97868.50
2023-07-27T08:38:29.180Z,97868.16
2023-07-27T08:40:59.510Z,97860.84
2023-07-27T08:43:27.213Z,97865.31
2023-07-27T08:45:55.433Z,97860.59
2023-07-27T08:48:24.853Z,97855.97
2023-07-27T08:50:53.542Z,97850.69
2023-07-27T08:53:20.316Z,97848.56
2023-07-27T08:55:47.091Z,97851.28
2023-07-27T08:58:14.404Z,97852.81
2023-07-27T09:00:41.275Z,97840.50
2023-07-27T09:03:08.982Z,97842.72
2023-07-27T09:05:41.733Z,97838.81
2023-07-27T09:08:11.182Z,97839.84
2023-07-27T09:10:39.789Z,97830.63
2023-07-27T09:13:07.230Z,97827.25
2023-07-27T09:15:36.349Z,97821.53
2023-07-27T09:18:10.057Z,97819.50
2023-07-27T09:20:46.210Z,97817.00
2023-07-27T09:23:20.611Z,97805.22
2023-07-27T09:25:56.669Z,97812.13
2023-07-27T09:28:28.566Z,97797.97
2023-07-27T09:31:00.469Z,97797.59
2023-07-27T09:33:27.346Z,97790.94
2023-07-27T09:35:55.826Z,97794.53
2023-07-27T09:38:29.552Z,97797.44
2023-07-27T09:40:56.260Z,97792.06
2023-07-27T09:43:24.747Z,97773.50
2023-07-27T09:45:59.801Z,97777.25
2023-07-27T09:48:30.064Z,97772.13
2023-07-27T09:51:00.747Z,97767.88
2023-07-27T09:53:31.031Z,97766.94
2023-07-27T09:55:59.640Z,97764.09
2023-07-27T09:58:26.483Z,97756.06
2023-07-27T10:00:53.266Z,97768.81
2023-07-27T10:03:19.930Z,97765.22
2023-07-27T10:05:47.301Z,97760.06
2023-07-27T10:08:14.007Z,97753.34
2023-07-27T10:10:43.372Z,97753.16
2023-07-27T10:13:33.571Z,97735.78
2023-07-27T10:16:02.173Z,97750.75
2023-07-27T10:18:30.009Z,97738.53
2023-07-27T10:20:58.076Z,97734.00
2023-07-27T10:23:29.513Z,97737.59
2023-07-27T10:25:59.435Z,97733.13
2023-07-27T10:28:39.453Z,97727.47
2023-07-27T10:31:15.599Z,97723.59
2023-07-27T10:34:24.510Z,97708.63
2023-07-27T10:36:59.697Z,97704.94
2023-07-27T10:39:51.164Z,97700.19
2023-07-27T10:42:20.440Z,97694.00
2023-07-27T10:44:56.024Z,97694.13
2023-07-27T10:47:29.026Z,97691.34
2023-07-27T10:49:58.031Z,97699.22
2023-07-27T10:52:27.296Z,97700.56
2023-07-27T10:54:57.629Z,97692.78
2023-07-27T10:57:25.460Z,97687.69
2023-07-27T10:59:53.045Z,97684.84
2023-07-27T11:02:22.980Z,97685.53
2023-07-27T11:05:11.012Z,97671.78
2023-07-27T11:07:43.856Z,97674.16
2023-07-27T11:10:12.873Z,97666.41
2023-07-27T11:12:53.966Z,97648.00
2023-07-27T11:15:23.186Z,97652.75
2023-07-27T11:17:51.664Z,97645.75
2023-07-27T11:20:22.198Z,97636.19
2023-07-27T11:22:50.086Z,97629.66
2023-07-27T11:25:17.028Z,97630.38
2023-07-27T11:27:44.043Z,97633.25
2023-07-27T11:30:13.762Z,97622.81
2023-07-27T11:32:40.647Z,97629.28
2023-07-27T11:35:07.608Z,97616.41
2023-07-27T11:37:35.156Z,97623.34
2023-07-27T11:40:01.964Z,97606.56
2023-07-27T11:42:30.357Z,97598.78
2023-07-27T11:44:58.693Z,97601.22
2023-07-27T11:47:26.116Z,97601.22
2023-07-27T11:49:55.491Z,97583.97
2023-07-27T11:52:22.416Z,97593.09
2023-07-27T11:54:53.687Z,97590.63
2023-07-27T11:57:20.463Z,97582.94
2023-07-27T12:00:15.830Z,97586.97
2023-07-27T12:02:47.255Z,97585.25
2023-07-27T12:05:18.546Z,97580.44
2023-07-27T12:10:30.441Z,97584.47
2023-07-27T12:15:34.030Z,97564.72
2023-07-27T12:18:05.699Z,97551.50
2023-07-27T12:30:34.032Z,97548.56
2023-07-27T12:33:00.891Z,97537.22
2023-07-27T12:35:29.809Z,97535.16
2023-07-27T12:37:57.400Z,97532.38
2023-07-27T12:40:55.560Z,97536.22
2023-07-27T12:43:11.650Z,97533.91
2023-07-27T12:45:38.779Z,97532.94
2023-07-27T12:48:07.034Z,97524.75
2023-07-27T12:50:33.964Z,97527.81
2023-07-27T12:53:00.853Z,97522.81
2023-07-27T12:55:27.737Z,97528.41
2023-07-27T12:57:54.326Z,97523.19
2023-07-27T13:00:21.111Z,97529.13
2023-07-27T13:02:48.954Z,97533.03
2023-07-27T13:05:17.079Z,97523.94
2023-07-27T13:07:45.930Z,97520.75
2023-07-27T13:10:13.586Z,97526.94
2023-07-27T13:12:40.759Z,97528.03
2023-07-27T13:15:08.087Z,97534.50
2023-07-27T13:17:36.869Z,97529.09
2023-07-27T13:20:05.012Z,97523.81
2023-07-27T13:22:31.888Z,97522.31
2023-07-27T13:24:58.750Z,97523.38
2023-07-27T13:27:25.654Z,97530.84
2023-07-27T13:29:52.470Z,97517.00
2023-07-27T13:32:19.252Z,97528.25
2023-07-27T13:34:45.944Z,97519.94
2023-07-27T13:37:12.766Z,97520.44
2023-07-27T13:39:40.875Z,97521.00
2023-07-27T13:42:07.771Z,97514.84
2023-07-27T13:44:34.779Z,97513.03
2023-07-27T13:47:01.509Z,97513.13
2023-07-27T13:49:28.411Z,97520.88
2023-07-27T13:51:55.001Z,97521.22
2023-07-27T13:54:21.742Z,97527.84
2023-07-27T13:56:48.502Z,97530.16
2023-07-27T13:59:15.363Z,97528.47
2023-07-27T14:01:42.167Z,97532.25
2023-07-27T14:04:09.683Z,97529.31
2023-07-27T14:06:36.589Z,97527.84
2023-07-27T14:09:04.163Z,97531.63
2023-07-27T14:11:33.283Z,97527.84
2023-07-27T14:14:00.203Z,97522.53
2023-07-27T14:16:27.085Z,97526.84
2023-07-27T14:18:54.070Z,97514.97
2023-07-27T14:21:20.918Z,97517.31
2023-07-27T14:23:49.575Z,97519.56
2023-07-27T14:26:21.364Z,97512.63
2023-07-27T14:28:52.059Z,97502.00
2023-07-27T14:31:19.602Z,97504.97
2023-07-27T14:33:47.618Z,97512.63
2023-07-27T14:36:14.536Z,97509.53
2023-07-27T14:38:41.505Z,97496.53
2023-07-27T14:41:11.682Z,97493.78
2023-07-27T14:43:43.348Z,97495.19
2023-07-27T14:46:10.381Z,97498.34
2023-07-27T14:48:37.876Z,97496.75
2023-07-27T14:51:04.734Z,97496.66
2023-07-27T14:53:31.534Z,97497.59
2023-07-27T14:55:58.427Z,97496.75
2023-07-27T14:58:25.078Z,97495.50
2023-07-27T15:00:52.743Z,97496.22
2023-07-27T15:03:21.692Z,97495.38
2023-07-27T15:05:49.744Z,97493.47
2023-07-27T15:08:16.743Z,97495.19
2023-07-27T15:10:46.853Z,97494.09
2023-07-27T15:13:13.615Z,97485.53
2023-07-27T15:15:40.414Z,97483.50
2023-07-27T15:18:09.306Z,97485.09
2023-07-27T15:20:43.222Z,97476.97
2023-07-27T15:23:10.540Z,97487.94
2023-07-27T15:25:37.567Z,97471.06
2023-07-27T15:28:08.874Z,97481.91
2023-07-27T15:30:35.663Z,97465.44
2023-07-27T15:33:02.456Z,97474.25
2023-07-27T15:35:35.549Z,97466.81
2023-07-27T15:38:02.503Z,97472.81
2023-07-27T15:40:29.149Z,97477.06
2023-07-27T15:42:55.791Z,97484.94
2023-07-27T15:45:22.542Z,97479.59
2023-07-27T15:47:49.331Z,97466.00
2023-07-27T15:50:16.228Z,97475.22
2023-07-27T15:52:44.923Z,97464.28
2023-07-27T15:55:12.026Z,97466.59
2023-07-27T15:57:38.987Z,97455.56
2023-07-27T16:00:06.568Z,97460.44
2023-07-27T16:02:33.642Z,97453.94
2023-07-27T16:05:00.458Z,97455.63
2023-07-27T16:07:27.327Z,97458.44
2023-07-27T16:09:58.667Z,97451.94
2023-07-27T16:12:28.053Z,97455.72
2023-07-27T16:14:55.210Z,97453.22
2023-07-27T16:17:22.076Z,97446.22
2023-07-27T16:19:51.682Z,97449.72
2023-07-27T16:22:18.802Z,97457.53
2023-07-27T16:24:52.591Z,97453.50
2023-07-27T16:27:21.048Z,97468.16
2023-07-27T16:29:48.669Z,97456.06
2023-07-27T16:32:15.694Z,97465.50
2023-07-27T16:34:42.536Z,97471.28
2023-07-27T16:37:09.316Z,97463.06
2023-07-27T16:39:36.122Z,97454.97
2023-07-27T16:42:03.062Z,97468.16
2023-07-27T16:44:31.477Z,97451.25
2023-07-27T16:46:58.417Z,97450.09
2023-07-27T16:49:25.215Z,97453.06
2023-07-27T16:51:51.895Z,97444.53
2023-07-27T16:54:18.743Z,97458.16
2023-07-27T16:56:45.746Z,97460.28
2023-07-27T16:59:12.465Z,97458.63
2023-07-27T17:01:40.052Z,97467.44
2023-07-27T17:04:06.783Z,97468.78
2023-07-27T17:06:33.905Z,97471.97
2023-07-27T17:09:00.928Z,97473.03
2023-07-27T17:11:27.603Z,97463.88
2023-07-27T17:13:54.294Z,97466.00
2023-07-27T17:16:20.925Z,97464.59
2023-07-27T17:18:49.506Z,97455.56
2023-07-27T17:21:16.341Z,97464.91
2023-07-27T17:23:43.214Z,97470.22
2023-07-27T17:26:09.937Z,97464.44
2023-07-27T17:28:36.687Z,97460.09
2023-07-27T17:31:04.559Z,97463.81
2023-07-27T17:33:31.737Z,97461.06
2023-07-27T17:36:00.074Z,97460.53
2023-07-27T17:38:34.371Z,97459.47
2023-07-27T17:41:03.320Z,97463.94
2023-07-27T17:43:31.437Z,97454.50
2023-07-27T17:45:59.223Z,97448.13
2023-07-27T17:48:27.501Z,97456.19
2023-07-27T17:50:58.957Z,97454.06
2023-07-27T17:53:26.968Z,97463.41
2023-07-27T17:56:00.891Z,97461.78
2023-07-27T17:58:27.508Z,97468.72
2023-07-27T18:00:54.298Z,97458.63
2023-07-27T18:03:21.078Z,97463.31
2023-07-27T18:05:48.972Z,97462.13
2023-07-27T18:08:19.581Z,97469.25
2023-07-27T18:10:47.347Z,97476.28
2023-07-27T18:13:14.396Z,97470.97
2023-07-27T18:15:42.344Z,97468.09
2023-07-27T18:18:09.318Z,97472.97
2023-07-27T18:20:36.043Z,97471.72
2023-07-27T18:23:02.623Z,97473.41
2023-07-27T18:25:29.302Z,97471.28
2023-07-27T18:27:55.958Z,97465.00
2023-07-27T18:30:23.747Z,97473.81
2023-07-27T18:32:51.311Z,97469.47
2023-07-27T18:35:17.953Z,97466.19
2023-07-27T18:37:44.554Z,97464.72
2023-07-27T18:40:12.573Z,97470.22
2023-07-27T18:42:39.714Z,97470.22
2023-07-27T18:45:12.017Z,97468.09
2023-07-27T18:47:39.594Z,97460.69
2023-07-27T18:50:07.223Z,97456.22
2023-07-27T18:52:33.966Z,97457.06
2023-07-27T18:55:00.686Z,97461.84
2023-07-27T18:57:27.639Z,97455.16
2023-07-27T18:59:54.546Z,97460.88
2023-07-27T19:02:21.308Z,97459.81
2023-07-27T19:04:49.245Z,97466.94
2023-07-27T19:07:15.920Z,97464.09
2023-07-27T19:09:42.634Z,97464.09
2023-07-27T19:12:09.371Z,97470.53
2023-07-27T19:14:35.966Z,97470.88
2023-07-27T19:17:02.788Z,97473.19
2023-07-27T19:19:29.477Z,97462.38
2023-07-27T19:21:56.891Z,97466.94
2023-07-27T19:24:23.642Z,97470.75
2023-07-27T19:26:50.462Z,97469.91
2023-07-27T19:29:19.035Z,97464.72
2023-07-27T19:31:47.824Z,97463.19
2023-07-27T19:34:14.755Z,97468.31
2023-07-27T19:36:41.477Z,97467.44
2023-07-27T19:39:08.206Z,97475.34
2023-07-27T19:41:35.540Z,97478.09
2023-07-27T19:44:03.211Z,97472.47
2023-07-27T19:46:30.087Z,97481.06
2023-07-27T19:48:56.920Z,97475.00
2023-07-27T19:51:24.948Z,97473.19
2023-07-27T19:53:51.519Z,97475.75
2023-07-27T19:56:18.620Z,97473.19
2023-07-27T19:58:45.978Z,97477.69
2023-07-27T20:01:14.238Z,97462.59
2023-07-27T20:03:42.807Z,97470.25
2023-07-27T20:06:09.533Z,97471.22
2023-07-27T20:08:46.662Z,97483.19
2023-07-27T20:11:16.064Z,97476.00
2023-07-27T20:13:43.139Z,97483.66
2023-07-27T20:16:09.769Z,97476.13
2023-07-27T20:18:36.332Z,97468.56
2023-07-27T20:21:03.091Z,97472.56
2023-07-27T20:23:29.808Z,97472.16
2023-07-27T20:25:56.429Z,97464.53
2023-07-27T20:28:23.317Z,97471.00
2023-07-27T20:30:50.120Z,97469.00
2023-07-27T20:33:16.886Z,97467.50
2023-07-27T20:35:43.468Z,97473.22
2023-07-27T20:38:10.113Z,97480.88
2023-07-27T20:40:36.930Z,97482.38
2023-07-27T20:43:03.746Z,97474.78
2023-07-27T20:45:30.578Z,97470.56
2023-07-27T20:47:57.407Z,97469.53
2023-07-27T20:50:24.209Z,97465.00
2023-07-27T20:52:50.952Z,97482.34
2023-07-27T20:55:17.570Z,97479.69
2023-07-27T20:57:48.617Z,97477.97
2023-07-27T21:00:15.390Z,97486.56
2023-07-27T21:02:42.595Z,97480.63
2023-07-27T21:05:10.314Z,97478.81
2023-07-27T21:07:37.024Z,97469.03
2023-07-27T21:10:03.957Z,97470.53
2023-07-27T21:12:30.673Z,97471.91
2023-07-27T21:14:58.744Z,97469.22
2023-07-27T21:17:25.650Z,97470.00
2023-07-27T21:19:52.409Z,97470.78
2023-07-27T21:22:18.902Z,97480.28
2023-07-27T21:24:45.697Z,97470.56
2023-07-27T21:27:12.437Z,97467.06
2023-07-27T21:29:39.128Z,97464.34
2023-07-27T21:32:06.404Z,97458.81
2023-07-27T21:34:33.115Z,97464.56
2023-07-27T21:36:59.714Z,97456.72
2023-07-27T21:39:26.388Z,97459.25
2023-07-27T21:41:59.908Z,97455.63
2023-07-27T21:44:27.721Z,97450.75
2023-07-27T21:46:54.838Z,97448.41
2023-07-27T21:49:21.569Z,97451.41
2023-07-27T21:51:49.302Z,97446.09
2023-07-27T21:54:16.071Z,97454.56
2023-07-27T21:56:42.836Z,97454.56
2023-07-27T21:59:09.556Z,97453.94
2023-07-27T22:01:36.508Z,97440.75
2023-07-27T22:04:04.530Z,97439.47
2023-07-27T22:06:31.698Z,97447.34
2023-07-27T22:08:58.702Z,97443.53
2023-07-27T22:11:25.292Z,97447.34
2023-07-27T22:13:52.104Z,97450.31
2023-07-27T22:16:18.811Z,97445.09
2023-07-27T22:18:45.510Z,97440.31
2023-07-27T22:21:12.201Z,97448.72
2023-07-27T22:23:38.761Z,97443.09
2023-07-27T22:26:05.591Z,97442.97
2023-07-27T22:28:32.677Z,97437.00
2023-07-27T22:30:59.728Z,97443.53
2023-07-27T22:33:26.489Z,97448.94
2023-07-27T22:35:53.037Z,97437.78
2023-07-27T22:38:19.772Z,97439.66
2023-07-27T22:40:52.190Z,97441.81
2023-07-27T22:43:18.916Z,97436.63
2023-07-27T22:45:45.560Z,97439.28
2023-07-27T22:48:12.268Z,97429.50
2023-07-27T22:50:38.900Z,97437.13
2023-07-27T22:53:06.032Z,97442.13
2023-07-27T22:55:32.764Z,97435.53
2023-07-27T22:57:59.423Z,97439.47
2023-07-27T23:00:26.453Z,97435.13
2023-07-27T23:02:53.115Z,97431.94
2023-07-27T23:05:19.927Z,97425.66
2023-07-27T23:07:46.401Z,97427.56
2023-07-27T23:10:13.143Z,97431.19
2023-07-27T23:12:39.783Z,97432.03
2023-07-27T23:15:06.769Z,97432.47
2023-07-27T23:17:33.498Z,97439.91
2023-07-27T23:20:00.177Z,97447.88
2023-07-27T23:22:26.775Z,97452.66
2023-07-27T23:24:53.377Z,97442.00
2023-07-27T23:27:19.975Z,97442.00
2023-07-27T23:29:46.672Z,97444.16
2023-07-27T23:32:13.441Z,97426.53
2023-07-27T23:34:41.141Z,97446.09
2023-07-27T23:37:07.790Z,97441.16
2023-07-27T23:39:35.910Z,97441.78
2023-07-27T23:42:02.612Z,97432.31
2023-07-27T23:44:29.242Z,97433.06
2023-07-27T23:46:55.953Z,97428.81
2023-07-27T23:49:22.700Z,97425.31
2023-07-27T23:51:49.522Z,97415.94
2023-07-27T23:54:16.083Z,97425.19
2023-07-27T23:56:42.828Z,97418.41
2023-07-27T23:59:09.488Z,97426.56
